Time;durP1;ratioP1;P1;durP2;ratioP2;P2;SDS_P1;SDS_P2;PMS_P1;PMS_P2;Temp;Humidity;BMP_temperature;BMP_pressure;BME280_temperature;BME280_humidity;BME280_pressure;Samples;Min_cycle;Max_cycle;Signal;HPM_P1;HPM_P2
2022/04/17 09:20:25;;;;;;;;;;;14.00;77.50;;;;;;5064476;28;20387;-56
2022/04/17 09:22:52;;;;;;;6.80;5.18;;;13.90;79.40;;;;;;5059036;28;20330;-57
2022/04/17 09:25:22;;;;;;;6.97;5.00;;;14.00;80.90;;;;;;5050409;28;20109;-54
2022/04/17 09:27:49;;;;;;;7.55;5.30;;;14.10;80.40;;;;;;5050440;28;20468;-54
2022/04/17 09:30:16;;;;;;;7.68;5.40;;;14.20;79.50;;;;;;5050552;28;20474;-57
2022/04/17 09:32:43;;;;;;;10.20;6.15;;;14.30;80.40;;;;;;5050223;28;20048;-55
2022/04/17 09:35:09;;;;;;;8.82;5.57;;;14.40;79.30;;;;;;5050202;28;20124;-58
2022/04/17 09:37:36;;;;;;;7.15;5.35;;;14.50;78.60;;;;;;5050218;28;20052;-58
2022/04/17 09:40:03;;;;;;;7.50;5.30;;;14.50;78.30;;;;;;5050194;28;20121;-56
2022/04/17 09:42:29;;;;;;;6.88;5.40;;;14.60;77.00;;;;;;5050391;28;20400;-54
2022/04/17 09:44:57;;;;;;;6.53;5.68;;;14.60;77.00;;;;;;5049535;28;20064;-57
2022/04/17 09:47:24;;;;;;;6.60;5.20;;;14.80;77.10;;;;;;5048790;28;20488;-54
2022/04/17 09:49:57;;;;;;;7.03;5.40;;;14.90;76.30;;;;;;5050244;28;20041;-57
2022/04/17 09:52:24;;;;;;;7.95;5.05;;;14.90;76.20;;;;;;5048745;28;20041;-55
2022/04/17 09:54:51;;;;;;;5.95;4.93;;;15.00;76.30;;;;;;5049921;28;20120;-54
2022/04/17 09:57:18;;;;;;;8.13;5.07;;;15.10;76.20;;;;;;5050226;28;20045;-51
2022/04/17 09:59:45;;;;;;;6.53;5.00;;;15.20;75.70;;;;;;5048472;28;20051;-53
2022/04/17 10:02:12;;;;;;;7.03;4.78;;;15.30;74.50;;;;;;5048786;28;20041;-51
2022/04/17 10:04:39;;;;;;;5.25;4.75;;;15.30;75.00;;;;;;5050049;28;20041;-55
2022/04/17 10:07:06;;;;;;;5.90;4.35;;;15.40;74.40;;;;;;5052067;28;20132;-54
2022/04/17 10:09:33;;;;;;;5.10;4.07;;;15.50;73.30;;;;;;5049833;28;20041;-54
2022/04/17 10:12:00;;;;;;;5.72;4.50;;;15.50;73.20;;;;;;5048294;28;20083;-54
2022/04/17 10:14:27;;;;;;;9.00;4.63;;;15.60;73.90;;;;;;5048376;28;20068;-51
2022/04/17 10:16:53;;;;;;;5.30;4.13;;;15.60;73.90;;;;;;5048587;28;20159;-56
2022/04/17 10:19:21;;;;;;;5.40;4.20;;;15.70;73.70;;;;;;5049200;28;20504;-55
2022/04/17 10:21:48;;;;;;;5.53;4.00;;;15.70;73.20;;;;;;5054227;28;20049;-55
2022/04/17 10:24:15;;;;;;;6.10;4.32;;;15.90;73.90;;;;;;5049348;28;20053;-48
2022/04/17 10:26:41;;;;;;;6.60;3.95;;;16.10;71.80;;;;;;5049292;28;20045;-53
2022/04/17 10:29:08;;;;;;;9.00;4.53;;;16.10;70.20;;;;;;5049332;28;20052;-54
2022/04/17 10:31:35;;;;;;;5.95;4.35;;;16.10;71.50;;;;;;5037273;28;20068;-52
2022/04/17 10:34:04;;;;;;;6.65;3.92;;;16.20;70.70;;;;;;5035725;28;20066;-54
2022/04/17 10:36:32;;;;;;;7.65;3.72;;;16.30;68.50;;;;;;5039355;28;20041;-56
2022/04/17 10:38:59;;;;;;;6.47;3.30;;;16.40;68.90;;;;;;5035730;28;20045;-54
2022/04/17 10:41:26;;;;;;;4.50;3.30;;;16.50;65.70;;;;;;5035721;28;20088;-50
2022/04/17 10:43:53;;;;;;;5.72;3.30;;;16.60;64.70;;;;;;5035830;28;20046;-56
2022/04/17 10:46:20;;;;;;;4.38;3.08;;;16.60;64.30;;;;;;5035694;28;20117;-56
2022/04/17 10:48:46;;;;;;;4.53;3.40;;;16.80;63.60;;;;;;5035629;28;20042;-56
2022/04/17 10:51:13;;;;;;;4.70;3.83;;;16.80;63.70;;;;;;5035574;28;20435;-53
2022/04/17 10:53:40;;;;;;;5.03;3.92;;;16.90;63.10;;;;;;5035825;28;20041;-55
2022/04/17 10:56:07;;;;;;;5.65;3.70;;;16.90;63.00;;;;;;5035615;28;20121;-55
2022/04/17 10:58:33;;;;;;;6.63;3.88;;;17.00;64.30;;;;;;5035549;28;20053;-56
2022/04/17 11:01:00;;;;;;;5.07;3.75;;;17.00;63.70;;;;;;5035408;28;20120;-50
2022/04/17 11:03:27;;;;;;;5.70;3.58;;;17.10;64.00;;;;;;5035401;28;20049;-57
2022/04/17 11:06:09;;;;;;;8.45;4.30;;;17.20;63.30;;;;;;5038968;28;20400;-56
2022/04/17 11:08:36;;;;;;;5.00;4.00;;;17.30;62.40;;;;;;5035325;28;20124;-55
2022/04/17 11:11:02;;;;;;;5.95;3.90;;;17.30;61.70;;;;;;5035344;28;20068;-56
2022/04/17 11:13:29;;;;;;;6.10;4.32;;;17.30;63.40;;;;;;5035076;28;20053;-52
2022/04/17 11:15:56;;;;;;;6.13;4.10;;;17.40;61.40;;;;;;5035182;28;20132;-51
2022/04/17 11:18:23;;;;;;;4.85;3.20;;;17.40;61.20;;;;;;5035114;28;20108;-54
2022/04/17 11:20:49;;;;;;;4.15;3.20;;;17.50;59.00;;;;;;5038735;28;20120;-54
2022/04/17 11:23:16;;;;;;;4.35;3.00;;;17.50;59.20;;;;;;5034761;28;20370;-53
2022/04/17 11:25:43;;;;;;;3.78;2.55;;;17.60;57.30;;;;;;5035527;28;20033;-50
2022/04/17 11:28:10;;;;;;;2.95;2.50;;;17.60;56.30;;;;;;5033591;28;20050;-56
2022/04/17 11:30:47;;;;;;;4.57;2.65;;;17.70;56.70;;;;;;5035021;28;20051;-52
2022/04/17 11:33:15;;;;;;;4.75;2.60;;;17.70;55.80;;;;;;5035118;28;20045;-56
2022/04/17 11:35:42;;;;;;;3.25;2.20;;;17.80;54.10;;;;;;5034763;28;20045;-52
2022/04/17 11:38:09;;;;;;;5.93;2.67;;;17.90;54.50;;;;;;5034892;28;20088;-52
2022/04/17 11:40:36;;;;;;;3.60;2.42;;;18.00;53.80;;;;;;5034574;28;20046;-55
2022/04/17 11:43:02;;;;;;;3.33;2.20;;;18.00;52.00;;;;;;5033677;28;20140;-53
2022/04/17 11:45:29;;;;;;;4.30;1.90;;;18.10;53.10;;;;;;5034763;28;20064;-53
2022/04/17 11:47:56;;;;;;;3.60;2.03;;;18.10;48.60;;;;;;5034853;28;20069;-55
2022/04/17 11:50:23;;;;;;;5.45;2.60;;;18.20;50.40;;;;;;5035541;28;20439;-53
2022/04/17 11:52:50;;;;;;;4.90;2.20;;;18.20;48.80;;;;;;5034671;28;20459;-56
2022/04/17 11:55:16;;;;;;;3.78;2.10;;;18.30;48.80;;;;;;5034500;28;20045;-55
2022/04/17 11:57:43;;;;;;;3.47;2.17;;;18.40;49.40;;;;;;5034283;28;20045;-54
2022/04/17 12:00:10;;;;;;;6.25;2.40;;;18.40;49.00;;;;;;5038813;28;20083;-57
2022/04/17 12:02:37;;;;;;;2.85;2.13;;;18.40;49.20;;;;;;5034162;28;20069;-54
2022/04/17 12:05:03;;;;;;;4.57;2.28;;;18.50;46.60;;;;;;5034271;28;20033;-56
2022/04/17 12:07:30;;;;;;;3.33;2.05;;;18.40;47.40;;;;;;5034556;28;20042;-55
2022/04/17 12:09:57;;;;;;;5.95;2.40;;;18.50;47.50;;;;;;5034272;28;20052;-56
2022/04/17 12:12:23;;;;;;;4.28;2.30;;;18.50;45.60;;;;;;5034051;28;20073;-53
2022/04/17 12:14:50;;;;;;;4.82;2.17;;;18.60;45.20;;;;;;5034108;28;20052;-52
2022/04/17 12:17:17;;;;;;;5.10;2.08;;;18.60;45.90;;;;;;5034211;28;20132;-53
2022/04/17 12:19:44;;;;;;;3.20;2.03;;;18.70;45.90;;;;;;5034004;28;20474;-56
2022/04/17 12:22:10;;;;;;;3.50;2.15;;;18.70;46.40;;;;;;5035137;28;20155;-58
2022/04/17 12:24:37;;;;;;;4.35;2.33;;;18.70;46.80;;;;;;5033912;28;20385;-54
2022/04/17 12:27:04;;;;;;;4.95;2.20;;;18.70;48.00;;;;;;5034073;28;20069;-56
2022/04/17 12:29:32;;;;;;;4.68;2.38;;;18.80;48.10;;;;;;5033927;28;20052;-55
2022/04/17 12:31:58;;;;;;;4.63;2.17;;;18.80;47.70;;;;;;5027611;28;20061;-57
2022/04/17 12:34:26;;;;;;;4.25;1.83;;;18.90;47.70;;;;;;5027804;28;20052;-55
2022/04/17 12:36:53;;;;;;;5.30;2.53;;;18.90;45.70;;;;;;5027598;28;20045;-53
2022/04/17 12:39:20;;;;;;;5.00;2.70;;;19.00;48.60;;;;;;5035429;28;20124;-56
2022/04/17 12:41:49;;;;;;;3.22;2.30;;;18.90;48.10;;;;;;5033868;28;20366;-54
2022/04/17 12:44:15;;;;;;;4.63;2.90;;;19.00;47.50;;;;;;5031635;28;20408;-57
2022/04/17 12:46:42;;;;;;;4.80;2.53;;;18.90;47.80;;;;;;5033534;28;20063;-52
2022/04/17 12:49:09;;;;;;;4.10;2.70;;;19.00;47.60;;;;;;5030627;28;20120;-58
2022/04/17 12:51:36;;;;;;;3.75;2.42;;;19.00;47.10;;;;;;5030284;28;20465;-57
2022/04/17 12:54:03;;;;;;;6.13;2.35;;;19.10;45.50;;;;;;5033213;28;20045;-57
2022/04/17 12:56:30;;;;;;;7.90;2.45;;;19.00;45.50;;;;;;5033377;28;20045;-54
2022/04/17 12:58:57;;;;;;;5.03;2.40;;;19.00;46.40;;;;;;5032132;28;20045;-56
2022/04/17 13:01:23;;;;;;;3.65;2.00;;;19.00;45.90;;;;;;5033252;28;20517;-56
2022/04/17 13:03:55;;;;;;;4.97;2.13;;;19.10;46.00;;;;;;5034850;28;20547;-57
2022/04/17 13:06:21;;;;;;;2.67;1.98;;;19.10;45.50;;;;;;5032258;28;20417;-56
2022/04/17 13:08:48;;;;;;;3.08;2.13;;;19.20;44.90;;;;;;5033155;28;20034;-57
2022/04/17 13:11:15;;;;;;;4.38;2.00;;;19.20;44.00;;;;;;5036107;28;20044;-55
2022/04/17 13:13:42;;;;;;;3.33;1.90;;;19.10;44.20;;;;;;5033351;28;20395;-53
2022/04/17 13:16:08;;;;;;;3.28;2.05;;;19.20;44.70;;;;;;5035037;28;20076;-55
2022/04/17 13:18:35;;;;;;;6.43;2.28;;;19.20;42.70;;;;;;5033015;28;20052;-57
2022/04/17 13:21:22;;;;;;;4.78;2.05;;;19.10;42.90;;;;;;5036468;28;20045;-54
2022/04/17 13:23:48;;;;;;;4.90;4.45;;;19.20;43.50;;;;;;5031185;28;20069;-53
2022/04/17 13:26:15;;;;;;;3.83;1.70;;;19.30;43.00;;;;;;5031696;28;20088;-53
2022/04/17 13:28:42;;;;;;;3.55;1.83;;;19.20;43.10;;;;;;5032989;28;20088;-54
2022/04/17 13:31:09;;;;;;;5.47;2.10;;;19.20;41.10;;;;;;5035776;28;20045;-56
2022/04/17 13:33:36;;;;;;;3.13;2.00;;;19.20;40.80;;;;;;5033140;28;20389;-51
2022/04/17 13:36:03;;;;;;;2.80;1.80;;;19.20;40.60;;;;;;5031846;28;20087;-54
2022/04/17 13:38:30;;;;;;;3.65;1.90;;;19.20;40.20;;;;;;5035556;28;20076;-57
2022/04/17 13:40:57;;;;;;;1.90;1.30;;;19.20;39.70;;;;;;5032740;28;20045;-56
2022/04/17 13:43:24;;;;;;;3.30;1.50;;;19.20;39.00;;;;;;5032886;28;20124;-53
2022/04/17 13:45:51;;;;;;;2.70;1.60;;;19.20;37.80;;;;;;5026549;28;20052;-54
2022/04/17 13:48:18;;;;;;;3.75;1.50;;;19.20;38.00;;;;;;5026636;28;20038;-54
2022/04/17 13:50:44;;;;;;;5.18;2.55;;;19.20;36.60;;;;;;5032981;28;20045;-50
2022/04/17 13:53:11;;;;;;;5.95;1.70;;;19.20;37.30;;;;;;5032946;28;20092;-53
2022/04/17 13:55:38;;;;;;;3.55;1.90;;;19.20;35.80;;;;;;5032818;28;20041;-55
2022/04/17 13:58:04;;;;;;;2.45;1.40;;;19.20;37.00;;;;;;5032808;28;20072;-51
2022/04/17 14:00:31;;;;;;;2.95;1.13;;;19.20;35.80;;;;;;5032917;28;20052;-57
2022/04/17 14:02:58;;;;;;;3.45;1.27;;;19.20;36.40;;;;;;5032912;28;20088;-56
2022/04/17 14:05:27;;;;;;;2.78;1.40;;;19.30;35.10;;;;;;5035763;28;20042;-56
2022/04/17 14:07:53;;;;;;;3.38;1.20;;;19.30;34.20;;;;;;5036446;28;20037;-54
2022/04/17 14:10:22;;;;;;;4.20;1.20;;;19.30;33.60;;;;;;5039216;28;20508;-55
2022/04/17 14:12:48;;;;;;;2.88;1.25;;;19.30;32.90;;;;;;5036300;28;20468;-57
2022/04/17 14:15:15;;;;;;;4.43;1.75;;;19.40;33.50;;;;;;5036751;28;20045;-52
2022/04/17 14:17:42;;;;;;;4.00;1.30;;;19.40;32.60;;;;;;5036186;28;20547;-54
2022/04/17 14:20:09;;;;;;;2.17;1.10;;;19.40;33.50;;;;;;5036074;28;20072;-57
2022/04/17 14:22:40;;;;;;;3.97;1.20;;;19.40;31.90;;;;;;5036002;28;20124;-56
2022/04/17 14:25:06;;;;;;;6.15;1.13;;;19.40;31.90;;;;;;5036145;28;20124;-54
2022/04/17 14:27:33;;;;;;;2.22;1.20;;;19.40;32.30;;;;;;5039386;28;20451;-53
2022/04/17 14:30:00;;;;;;;3.50;1.30;;;19.40;32.90;;;;;;5036008;28;20046;-55
2022/04/17 14:32:27;;;;;;;4.80;1.10;;;19.50;33.20;;;;;;5035968;28;20133;-54
2022/04/17 14:34:53;;;;;;;2.90;1.40;;;19.50;33.50;;;;;;5036013;28;20132;-55
2022/04/17 14:37:20;;;;;;;2.75;1.23;;;19.50;32.60;;;;;;5035883;28;20462;-56
2022/04/17 14:39:48;;;;;;;3.25;1.58;;;19.50;33.70;;;;;;5035823;28;20133;-56
2022/04/17 14:42:14;;;;;;;3.88;1.48;;;19.50;33.80;;;;;;5035775;28;20041;-58
2022/04/17 14:44:41;;;;;;;4.43;2.00;;;19.50;33.90;;;;;;5035417;28;20124;-56
2022/04/17 14:47:08;;;;;;;4.30;1.90;;;19.50;34.10;;;;;;5035921;28;20050;-54
2022/04/17 14:49:36;;;;;;;3.28;1.52;;;19.60;34.10;;;;;;5035713;28;20467;-57
2022/04/17 14:52:03;;;;;;;2.88;1.77;;;19.50;34.70;;;;;;5035677;28;20480;-53
2022/04/17 14:54:30;;;;;;;2.70;1.52;;;19.50;33.50;;;;;;5035482;28;20073;-54
2022/04/17 14:56:57;;;;;;;2.88;1.73;;;19.50;32.40;;;;;;5035592;28;20506;-52
2022/04/17 14:59:24;;;;;;;2.85;1.58;;;19.60;32.70;;;;;;5035618;28;20061;-54
2022/04/17 15:01:53;;;;;;;2.08;1.33;;;19.50;32.80;;;;;;5034310;28;20061;-55
2022/04/17 15:04:21;;;;;;;3.08;1.50;;;19.60;33.00;;;;;;5035460;28;20050;-54
2022/04/17 15:06:47;;;;;;;2.63;1.88;;;19.60;32.10;;;;;;5035561;28;20506;-54
2022/04/17 15:09:14;;;;;;;2.97;1.50;;;19.60;33.20;;;;;;5035296;28;20494;-55
2022/04/17 15:11:41;;;;;;;3.00;1.73;;;19.60;32.20;;;;;;5035157;28;20037;-57
2022/04/17 15:14:08;;;;;;;5.07;1.55;;;19.60;31.30;;;;;;5038139;28;20065;-56
2022/04/17 15:16:35;;;;;;;3.42;1.55;;;19.50;32.10;;;;;;5035186;28;20037;-57
2022/04/17 15:19:02;;;;;;;3.28;1.40;;;19.50;32.80;;;;;;5033870;28;20052;-54
2022/04/17 15:21:28;;;;;;;2.40;1.40;;;19.50;32.10;;;;;;5034814;28;20045;-56
2022/04/17 15:23:55;;;;;;;2.42;1.27;;;19.50;32.90;;;;;;5035015;28;20119;-54
2022/04/17 15:26:22;;;;;;;2.05;1.35;;;19.50;32.30;;;;;;5039085;28;20069;-52
2022/04/17 15:28:50;;;;;;;3.65;1.58;;;19.50;32.80;;;;;;5034887;28;20056;-54
2022/04/17 15:31:16;;;;;;;3.95;1.50;;;19.50;33.00;;;;;;5034787;28;20042;-51
2022/04/17 15:33:47;;;;;;;3.67;1.52;;;19.50;34.70;;;;;;5035132;28;20107;-52
2022/04/17 15:36:14;;;;;;;2.63;1.42;;;19.60;33.20;;;;;;5034951;28;20480;-55
2022/04/17 15:38:41;;;;;;;2.85;2.10;;;19.50;33.30;;;;;;5035039;28;20049;-53
2022/04/17 15:41:08;;;;;;;2.58;1.80;;;19.40;34.00;;;;;;5034785;28;20069;-55
2022/04/17 15:49:06;;;;;;;4.07;2.10;;;19.40;33.10;;;;;;5030800;28;20069;-54
2022/04/17 15:51:32;;;;;;;2.80;1.55;;;19.30;33.80;;;;;;5033080;28;20410;-52
2022/04/17 15:53:59;;;;;;;2.63;1.70;;;19.30;34.90;;;;;;5032611;28;20045;-52
2022/04/17 15:56:31;;;;;;;2.08;1.38;;;19.40;35.60;;;;;;5031573;28;20049;-53
2022/04/17 15:58:59;;;;;;;3.28;1.90;;;19.30;35.10;;;;;;5031580;28;20120;-57
2022/04/17 16:01:25;;;;;;;2.90;1.88;;;19.30;34.80;;;;;;5031238;28;20056;-56
2022/04/17 16:03:52;;;;;;;2.25;1.55;;;19.30;35.30;;;;;;5032501;28;20484;-50
2022/04/17 16:06:19;;;;;;;3.88;1.80;;;19.30;34.90;;;;;;5026102;28;20042;-55
2022/04/17 16:08:46;;;;;;;3.65;2.05;;;19.30;34.80;;;;;;5029319;28;20120;-52
2022/04/17 16:11:13;;;;;;;5.18;2.25;;;19.20;34.80;;;;;;5030147;28;20072;-56
2022/04/17 16:13:40;;;;;;;3.70;2.22;;;19.20;34.40;;;;;;5028362;28;20037;-54
2022/04/17 16:16:07;;;;;;;4.65;2.70;;;19.20;35.20;;;;;;5030890;28;21079;-55
2022/04/17 16:18:35;;;;;;;3.67;2.42;;;19.20;35.20;;;;;;5027903;28;20057;-58
2022/04/17 16:21:02;;;;;;;3.65;2.28;;;19.30;35.00;;;;;;5035633;28;20368;-58
2022/04/17 16:23:29;;;;;;;5.95;2.95;;;19.30;34.70;;;;;;5033847;28;20045;-53
2022/04/17 16:25:56;;;;;;;4.72;2.40;;;19.60;35.40;;;;;;5033901;28;20046;-55
2022/04/17 16:28:22;;;;;;;6.05;2.65;;;19.80;34.80;;;;;;5033915;28;20037;-55
2022/04/17 16:30:49;;;;;;;3.60;2.40;;;20.00;35.20;;;;;;5033448;28;20033;-57
2022/04/17 16:33:16;;;;;;;3.67;2.72;;;20.10;35.80;;;;;;5033801;28;20045;-54
2022/04/17 16:35:43;;;;;;;4.07;2.45;;;20.30;35.60;;;;;;5033705;28;20378;-53
2022/04/17 16:38:09;;;;;;;5.03;3.38;;;20.40;35.20;;;;;;5030830;28;20481;-56
2022/04/17 16:40:36;;;;;;;3.72;2.65;;;20.40;35.00;;;;;;5028546;28;20448;-55
2022/04/17 16:43:03;;;;;;;4.47;2.53;;;20.30;35.20;;;;;;5030681;28;20041;-55
2022/04/17 16:45:30;;;;;;;5.45;2.92;;;20.20;34.90;;;;;;5032916;28;20067;-55
2022/04/17 16:47:57;;;;;;;3.33;2.45;;;20.10;35.80;;;;;;5029375;28;20037;-50
2022/04/17 16:50:30;;;;;;;5.55;3.10;;;20.10;35.30;;;;;;5030287;28;20042;-54
2022/04/17 16:52:56;;;;;;;5.63;2.60;;;20.20;35.50;;;;;;5028671;28;20071;-55
2022/04/17 16:55:23;;;;;;;3.95;2.58;;;20.50;35.90;;;;;;5033373;28;20041;-50
2022/04/17 17:00:35;;;;;;;;;;;20.60;35.00;;;;;;5033841;28;20042;-50
2022/04/17 17:03:02;;;;;;;4.97;2.80;;;20.60;35.50;;;;;;5033232;28;19952;-55
2022/04/17 17:05:28;;;;;;;7.65;2.80;;;20.60;36.10;;;;;;5033413;28;20087;-53
2022/04/17 17:07:55;;;;;;;4.28;2.83;;;20.50;36.50;;;;;;5027228;28;20117;-51
2022/04/17 17:10:22;;;;;;;4.88;2.90;;;20.50;35.80;;;;;;5031492;28;20080;-54
2022/04/17 17:12:49;;;;;;;5.50;2.85;;;20.50;37.20;;;;;;5026930;28;20034;-53
2022/04/17 17:15:16;;;;;;;5.47;2.92;;;20.60;35.80;;;;;;5027610;28;20065;-52
2022/04/17 17:17:43;;;;;;;6.03;2.72;;;20.70;36.40;;;;;;5029607;28;20084;-57
2022/04/17 17:20:09;;;;;;;5.85;3.35;;;20.60;36.30;;;;;;5030332;28;20432;-52
2022/04/17 17:22:36;;;;;;;5.32;3.30;;;20.70;35.30;;;;;;5032949;28;20140;-53
2022/04/17 17:25:03;;;;;;;5.18;3.33;;;20.90;35.20;;;;;;5032494;28;20030;-56
2022/04/17 17:27:30;;;;;;;4.75;3.03;;;21.30;34.60;;;;;;5028708;28;20400;-54
2022/04/17 17:29:58;;;;;;;6.40;3.78;;;21.50;34.10;;;;;;5027225;28;20038;-56
2022/04/17 17:32:25;;;;;;;6.82;3.60;;;21.40;33.30;;;;;;5028148;28;20045;-57
2022/04/17 17:34:52;;;;;;;4.00;2.47;;;21.30;34.30;;;;;;5030574;28;20053;-53
2022/04/17 17:37:18;;;;;;;3.80;2.80;;;21.40;34.00;;;;;;5028323;28;20040;-54
2022/04/17 17:39:45;;;;;;;5.20;3.08;;;21.40;34.10;;;;;;5031559;28;20117;-58
2022/04/17 17:42:12;;;;;;;5.60;3.38;;;21.50;34.50;;;;;;5033769;28;20041;-56
2022/04/17 17:44:39;;;;;;;4.70;3.00;;;21.60;35.10;;;;;;5032183;28;20037;-50
2022/04/17 17:47:05;;;;;;;3.58;2.80;;;21.70;34.50;;;;;;5037114;28;20041;-57
2022/04/17 17:49:32;;;;;;;4.75;2.90;;;21.50;34.90;;;;;;5036849;28;20100;-54
2022/04/17 17:52:00;;;;;;;4.65;3.10;;;21.20;34.70;;;;;;5036568;28;20046;-54
2022/04/17 17:54:31;;;;;;;4.65;2.42;;;21.00;34.70;;;;;;5036824;28;20471;-56
2022/04/17 17:56:58;;;;;;;4.60;2.92;;;20.80;34.80;;;;;;5036672;28;20048;-53
2022/04/17 17:59:25;;;;;;;7.45;2.72;;;20.50;35.30;;;;;;5035444;28;20033;-52
2022/04/17 18:01:56;;;;;;;4.15;2.97;;;20.20;36.10;;;;;;5036834;28;20497;-52
2022/04/17 18:04:23;;;;;;;4.45;3.05;;;20.00;36.30;;;;;;5035548;28;20041;-48
2022/04/17 18:06:50;;;;;;;4.50;3.10;;;19.70;36.50;;;;;;5035873;28;20468;-54
2022/04/17 18:14:47;;;;;;;;;;;19.00;37.90;;;;;;5036895;28;20416;-52
2022/04/17 18:17:14;;;;;;;5.47;3.60;;;18.70;38.30;;;;;;5036390;28;19967;-49
2022/04/17 18:19:41;;;;;;;6.72;3.38;;;18.60;38.90;;;;;;5036025;28;20057;-53
2022/04/17 18:24:53;;;;;;;4.60;3.28;;;18.20;39.50;;;;;;5036102;28;20072;-54
2022/04/17 18:27:20;;;;;;;5.97;3.85;;;18.00;40.30;;;;;;5040964;28;20081;-49
2022/04/17 18:29:46;;;;;;;5.70;3.35;;;17.90;40.60;;;;;;5034872;28;20049;-52
2022/04/17 18:32:13;;;;;;;4.63;3.42;;;17.70;40.60;;;;;;5036506;28;20076;-51
2022/04/17 18:34:40;;;;;;;6.65;3.35;;;17.60;41.30;;;;;;5037903;28;20037;-56
2022/04/17 18:37:07;;;;;;;6.00;4.10;;;17.40;41.30;;;;;;5035838;28;20124;-54
2022/04/17 18:39:33;;;;;;;7.90;3.58;;;17.30;41.80;;;;;;5035806;28;20451;-52
2022/04/17 18:42:00;;;;;;;5.10;3.50;;;17.20;41.90;;;;;;5035789;28;20050;-48
2022/04/17 18:44:27;;;;;;;5.30;3.40;;;17.10;42.30;;;;;;5036177;28;20435;-54
2022/04/17 18:46:54;;;;;;;4.78;3.40;;;17.00;42.50;;;;;;5035792;28;20446;-54
2022/04/17 18:49:20;;;;;;;7.53;3.50;;;16.80;42.70;;;;;;5034538;28;20412;-54
2022/04/17 18:51:47;;;;;;;6.00;3.65;;;16.70;43.40;;;;;;5035092;28;20423;-51
2022/04/17 18:54:14;;;;;;;8.25;3.55;;;16.70;43.80;;;;;;5035738;28;20479;-58
2022/04/17 18:56:41;;;;;;;6.25;3.35;;;16.50;43.90;;;;;;5035630;28;20523;-52
2022/04/17 18:59:08;;;;;;;5.35;3.60;;;16.50;44.30;;;;;;5035603;28;20517;-50
2022/04/17 19:01:34;;;;;;;6.50;3.90;;;16.30;44.90;;;;;;5035420;28;20124;-52
2022/04/17 19:04:03;;;;;;;8.30;3.80;;;16.30;44.80;;;;;;5040861;28;20069;-55
2022/04/17 19:06:29;;;;;;;8.68;3.65;;;16.10;45.40;;;;;;5034936;28;20087;-54
2022/04/17 19:08:58;;;;;;;6.80;3.97;;;16.00;45.30;;;;;;5035308;28;20488;-54
2022/04/17 19:14:10;;;;;;;6.07;4.65;;;15.90;46.30;;;;;;5035371;28;20103;-55
2022/04/17 19:16:38;;;;;;;7.55;4.95;;;15.80;46.80;;;;;;5035705;28;20099;-50
2022/04/17 19:19:05;;;;;;;7.03;4.40;;;15.70;46.90;;;;;;5035412;28;20049;-56
2022/04/17 19:21:32;;;;;;;9.73;4.85;;;15.60;47.40;;;;;;5022965;28;20072;-57
2022/04/17 19:23:59;;;;;;;12.07;5.78;;;15.50;48.20;;;;;;5035168;28;20136;-55
2022/04/17 19:26:26;;;;;;;13.68;7.05;;;15.40;48.20;;;;;;5035131;28;20492;-53
2022/04/17 19:28:52;;;;;;;9.23;6.50;;;15.30;48.70;;;;;;5037336;28;20049;-54
2022/04/17 19:36:50;;;;;;;6.90;4.82;;;15.10;50.30;;;;;;5034885;28;20103;-53
2022/04/17 19:39:17;;;;;;;7.38;4.43;;;15.00;50.40;;;;;;5028189;28;20045;-53
2022/04/17 19:41:44;;;;;;;10.57;4.55;;;14.90;50.10;;;;;;5034551;28;20124;-54
2022/04/17 19:44:10;;;;;;;6.50;4.05;;;14.90;50.50;;;;;;5034731;28;20069;-55
2022/04/17 19:46:39;;;;;;;9.55;4.18;;;14.80;51.60;;;;;;5034363;28;20046;-57
2022/04/17 19:49:05;;;;;;;6.28;4.15;;;14.70;52.10;;;;;;5035069;28;20060;-53
2022/04/17 19:51:32;;;;;;;7.65;5.18;;;14.60;52.30;;;;;;5034524;28;20049;-54
2022/04/17 19:53:59;;;;;;;8.48;5.20;;;14.50;52.40;;;;;;5034462;28;20069;-54
2022/04/17 19:56:30;;;;;;;9.05;5.38;;;14.50;53.90;;;;;;5034462;28;20045;-53
2022/04/17 19:58:57;;;;;;;9.35;6.40;;;14.40;54.30;;;;;;5034259;28;20041;-51
2022/04/17 20:01:23;;;;;;;9.65;7.03;;;14.30;55.00;;;;;;5034193;28;20037;-53
2022/04/17 20:03:50;;;;;;;9.40;6.93;;;14.30;56.30;;;;;;5033480;28;20151;-55
2022/04/17 20:06:17;;;;;;;13.85;7.72;;;14.10;57.20;;;;;;5033924;28;20038;-52
2022/04/17 20:08:44;;;;;;;9.73;7.40;;;14.10;57.30;;;;;;5032135;28;20099;-51
2022/04/17 20:11:11;;;;;;;14.10;8.00;;;14.00;59.10;;;;;;5034246;28;20099;-53
2022/04/17 20:13:37;;;;;;;11.18;7.53;;;13.90;59.30;;;;;;5033349;28;20065;-54
2022/04/17 20:16:07;;;;;;;8.05;6.38;;;13.90;60.20;;;;;;5034151;28;20156;-55
2022/04/17 20:18:35;;;;;;;7.45;4.70;;;13.80;60.30;;;;;;5033823;28;20046;-55
2022/04/17 20:21:02;;;;;;;8.40;4.50;;;13.80;60.00;;;;;;5037159;28;20045;-52
2022/04/17 20:23:29;;;;;;;6.78;4.75;;;13.80;60.20;;;;;;5034906;28;20061;-54
2022/04/17 20:25:55;;;;;;;7.65;4.15;;;13.70;60.00;;;;;;5034046;28;20064;-55
2022/04/17 20:28:22;;;;;;;6.35;4.13;;;13.70;59.70;;;;;;5034318;28;20041;-54
2022/04/17 20:30:49;;;;;;;8.60;4.32;;;13.70;59.70;;;;;;5033723;28;20041;-55
2022/04/17 20:33:16;;;;;;;5.50;4.10;;;13.60;60.20;;;;;;5032551;28;20065;-59
2022/04/17 20:35:44;;;;;;;6.32;4.00;;;13.60;60.40;;;;;;5033775;28;20129;-55
2022/04/17 20:38:11;;;;;;;7.07;5.65;;;13.60;60.60;;;;;;5033851;28;20091;-54
2022/04/17 20:40:38;;;;;;;10.20;6.10;;;13.50;62.50;;;;;;5032761;28;20041;-55
2022/04/17 20:51:08;;;;;;;8.02;6.05;;;13.20;66.20;;;;;;5033118;28;20431;-56
2022/04/17 20:53:35;;;;;;;11.15;5.10;;;13.20;67.30;;;;;;5033490;28;20037;-57
2022/04/17 20:56:03;;;;;;;9.98;5.35;;;13.20;67.40;;;;;;5033492;28;20037;-54
2022/04/17 20:58:30;;;;;;;9.27;5.47;;;13.10;67.90;;;;;;5036986;28;20099;-55
2022/04/17 21:00:57;;;;;;;11.63;7.38;;;13.10;68.60;;;;;;5033267;28;20052;-57
2022/04/17 21:03:23;;;;;;;11.00;7.13;;;13.10;69.00;;;;;;5033390;28;20065;-51
2022/04/17 21:05:52;;;;;;;12.25;7.05;;;13.00;69.90;;;;;;5033312;28;20100;-52
2022/04/17 21:08:18;;;;;;;10.82;7.32;;;13.00;70.60;;;;;;5033298;28;20092;-57
2022/04/17 21:10:45;;;;;;;12.75;6.80;;;12.90;70.80;;;;;;5032515;28;20045;-57
2022/04/17 21:13:12;;;;;;;10.50;7.13;;;12.90;71.80;;;;;;5033657;28;20095;-56
2022/04/17 21:15:39;;;;;;;15.63;8.45;;;12.80;72.10;;;;;;5033151;28;20037;-58
2022/04/17 21:18:06;;;;;;;11.57;8.20;;;12.70;72.80;;;;;;5033021;28;20095;-54
2022/04/17 21:20:32;;;;;;;14.02;7.68;;;12.60;73.20;;;;;;5032031;28;20058;-55
2022/04/17 21:22:59;;;;;;;10.63;5.88;;;12.50;73.10;;;;;;5032871;28;20041;-57
2022/04/17 21:25:26;;;;;;;8.48;5.82;;;12.40;73.00;;;;;;5032293;28;20554;-53
2022/04/17 21:27:53;;;;;;;8.25;5.45;;;12.40;73.90;;;;;;5032179;28;20129;-53
2022/04/17 21:30:20;;;;;;;9.90;5.32;;;12.30;74.30;;;;;;5032723;28;20095;-55
2022/04/17 21:32:47;;;;;;;8.60;5.38;;;12.30;73.60;;;;;;5031254;28;20045;-54
2022/04/17 21:35:14;;;;;;;9.10;5.32;;;12.20;74.30;;;;;;5030673;28;20050;-53
2022/04/17 21:37:40;;;;;;;13.27;5.93;;;12.10;74.30;;;;;;5032266;28;20038;-52
2022/04/17 21:40:08;;;;;;;10.70;5.90;;;12.10;74.70;;;;;;5031582;28;20403;-57
2022/04/17 21:42:35;;;;;;;11.02;6.68;;;12.00;75.00;;;;;;5032565;28;20048;-55
2022/04/17 21:45:02;;;;;;;8.95;6.55;;;11.90;75.60;;;;;;5032383;28;20052;-55
2022/04/17 21:47:29;;;;;;;9.05;5.75;;;11.80;76.00;;;;;;5032791;28;20477;-53
2022/04/17 21:49:55;;;;;;;11.45;7.60;;;11.50;76.30;;;;;;5027558;28;20373;-53
